CDT,Max TemperatureF,Mean TemperatureF,Min TemperatureF,Max Dew PointF,MeanDew PointF,Min DewpointF,Max Humidity, Mean Humidity, Min Humidity, Max Sea Level PressureIn, Mean Sea Level PressureIn, Min Sea Level PressureIn, Max VisibilityMiles, Mean VisibilityMiles, Min VisibilityMiles, Max Wind SpeedMPH, Mean Wind SpeedMPH, Max Gust SpeedMPH,PrecipitationIn, CloudCover, Events, WindDirDegrees
2013-5-1,82,67,52,60,55,50,89,66,42,30.13,30.09,30.02,10,10,9,13,3,16,0.00,0,,112
2013-5-2,79,70,60,58,56,54,84,66,48,30.16,30.09,30.04,10,10,10,13,6,16,T,2,Rain,170
2013-5-3,76,65,53,59,55,52,90,67,43,30.03,29.92,29.81,10,10,10,24,10,36,0.02,5,Rain,148
2013-5-4,52,49,46,52,45,43,93,90,86,30.01,29.95,29.88,10,6,2,14,4,18,1.09,8,Rain,232
2013-5-5,61,55,48,53,50,45,93,83,72,29.98,29.89,29.85,10,9,3,14,7,18,0.60,8,Rain,45
2013-5-6,68,60,52,55,52,48,93,80,67,29.94,29.87,29.83,10,9,3,15,7,20,0.05,7,Rain,19
2013-5-7,75,64,53,59,55,51,100,77,53,30.01,29.98,29.93,10,6,0,18,4,23,0.19,6,Fog-Rain-Thunderstorm,40
2013-5-8,81,66,51,59,53,49,100,70,40,30.04,29.99,29.96,10,4,0,10,2,13,0.00,2,Fog,281
2013-5-9,79,68,56,61,58,54,87,69,50,30.03,29.98,29.91,10,10,10,24,6,31,T,3,Rain-Thunderstorm,195
2013-5-10,73,66,58,63,61,53,93,79,64,29.95,29.89,29.83,10,8,1,16,6,21,0.55,7,Rain-Thunderstorm,237
2013-5-11,69,59,48,55,48,32,93,68,42,30.12,29.99,29.95,10,9,4,20,8,29,0.05,6,Rain,316
2013-5-12,61,50,39,39,33,28,83,58,32,30.21,30.17,30.12,10,10,10,17,6,25,0.00,0,,304
2013-5-13,69,54,38,42,36,30,92,58,24,30.26,30.19,30.14,10,10,10,16,3,28,0.00,0,,265
2013-5-14,84,67,50,59,50,36,61,49,37,30.12,29.98,29.86,10,10,10,22,11,29,0.00,0,,202
2013-5-15,85,74,63,59,58,55,84,62,40,30.00,29.94,29.88,10,10,10,20,11,25,0.00,0,,221
2013-5-16,83,74,65,66,59,53,87,67,47,29.97,29.93,29.89,10,10,10,16,5,25,0.00,2,,241
2013-5-17,74,69,64,64,62,61,93,83,73,30.03,30.00,29.97,10,8,2,15,4,20,0.04,7,Rain,125
2013-5-18,78,71,63,64,63,62,93,79,64,30.02,29.99,29.95,10,7,2,7,2,9,0.00,7,,77
2013-5-19,87,74,61,73,65,59,93,74,55,29.98,29.93,29.84,10,4,1,13,6,17,0.00,2,,127
2013-5-20,86,79,71,70,67,65,84,70,55,29.97,29.91,29.83,10,9,7,17,10,24,0.00,3,,192
2013-5-21,79,72,64,66,63,57,93,76,58,29.96,29.87,29.80,10,8,0,33,8,38,1.18,5,Fog-Rain-Thunderstorm,204
2013-5-22,78,72,65,63,62,59,87,71,54,29.85,29.80,29.77,10,10,2,20,8,25,0.31,6,Rain,212
2013-5-23,69,60,50,62,54,45,93,76,58,30.20,30.01,29.85,10,10,9,20,8,30,0.01,6,Rain,304
2013-5-24,70,57,44,48,42,35,86,61,36,30.38,30.31,30.21,10,10,10,13,5,18,0.00,0,,5
2013-5-25,74,60,45,50,45,41,93,63,33,30.38,30.29,30.18,10,10,10,14,3,17,0.01,2,Rain,75
2013-5-26,78,68,57,53,50,45,67,55,43,30.28,30.20,30.11,10,10,7,14,6,18,T,5,Rain,107
2013-5-27,86,73,60,64,59,52,81,61,40,30.09,30.02,29.94,10,10,4,31,10,46,0.12,3,Rain-Thunderstorm,175
2013-5-28,86,77,67,67,62,55,81,63,45,30.01,29.96,29.91,10,10,10,26,12,36,0.00,1,,194
2013-5-29,87,76,65,63,59,56,73,58,42,30.07,30.01,29.96,10,10,10,20,9,26,0.00,1,,180
2013-5-30,86,78,69,70,65,61,71,61,51,30.05,30.00,29.94,10,9,1,33,10,49,0.38,4,Rain-Thunderstorm,176
2013-5-31,81,76,71,70,68,65,84,73,62,30.00,29.95,29.88,10,9,1,21,10,29,0.48,7,Rain-Thunderstorm,184